createdAt,value
2017-11-22T00:02:02.917Z,6.57
2017-11-22T00:04:28.704Z,7.33
2017-11-22T00:06:55.500Z,9.20
2017-11-22T00:09:21.288Z,8.00
2017-11-22T00:11:49.779Z,9.13
2017-11-22T00:14:15.549Z,8.38
2017-11-22T00:16:42.023Z,7.37
2017-11-22T00:19:09.405Z,8.88
2017-11-22T00:21:35.192Z,9.00
2017-11-22T00:24:01.848Z,8.43
2017-11-22T00:26:27.623Z,9.00
2017-11-22T00:28:57.063Z,7.93
2017-11-22T00:31:22.823Z,8.38
2017-11-22T00:33:52.600Z,6.73
2017-11-22T00:36:18.411Z,7.07
2017-11-22T00:38:46.015Z,7.10
2017-11-22T00:41:11.780Z,6.05
2017-11-22T00:43:40.388Z,6.00
2017-11-22T00:46:06.176Z,5.87
2017-11-22T00:48:32.651Z,5.90
2017-11-22T00:50:59.993Z,5.35
2017-11-22T00:53:25.847Z,5.50
2017-11-22T00:55:52.945Z,3.97
2017-11-22T00:58:18.736Z,5.10
2017-11-22T01:00:47.770Z,4.30
2017-11-22T01:03:13.544Z,3.55
2017-11-22T01:05:43.278Z,4.50
2017-11-22T01:08:09.100Z,3.17
2017-11-22T01:10:37.908Z,2.60
2017-11-22T01:13:03.700Z,2.72
2017-11-22T01:15:31.053Z,3.30
2017-11-22T01:17:56.827Z,3.33
2017-11-22T01:20:26.102Z,2.67
2017-11-22T01:22:51.872Z,4.03
2017-11-22T01:25:20.387Z,4.97
2017-11-22T01:27:46.172Z,3.08
2017-11-22T01:30:12.644Z,2.67
2017-11-22T01:32:38.444Z,4.20
2017-11-22T01:35:04.237Z,4.57
2017-11-22T01:37:34.118Z,6.87
2017-11-22T01:39:59.891Z,7.20
2017-11-22T01:42:27.213Z,6.60
2017-11-22T01:44:53.019Z,5.12
2017-11-22T01:47:22.480Z,5.03
2017-11-22T01:49:48.280Z,5.57
2017-11-22T01:52:17.875Z,4.77
2017-11-22T01:54:43.668Z,5.10
2017-11-22T01:57:11.080Z,4.30
2017-11-22T01:59:36.865Z,4.75
2017-11-22T02:02:06.214Z,3.50
2017-11-22T02:04:32.028Z,4.37
2017-11-22T02:07:00.884Z,3.83
2017-11-22T02:09:26.693Z,4.03
2017-11-22T02:11:55.991Z,3.47
2017-11-22T02:14:21.764Z,3.95
2017-11-22T02:16:51.311Z,2.90
2017-11-22T02:19:17.107Z,2.62
2017-11-22T02:21:44.826Z,2.40
2017-11-22T02:24:10.606Z,1.92
2017-11-22T02:26:39.988Z,1.93
2017-11-22T02:29:05.783Z,3.37
2017-11-22T02:31:31.587Z,9.23
2017-11-22T02:33:57.372Z,10.13
2017-11-22T02:36:23.155Z,8.80
2017-11-22T02:38:51.983Z,5.30
2017-11-22T02:41:17.781Z,4.90
2017-11-22T02:43:47.253Z,4.03
2017-11-22T02:46:13.028Z,3.45
2017-11-22T02:48:42.192Z,3.80
2017-11-22T02:51:08.005Z,2.95
2017-11-22T02:53:35.253Z,3.40
2017-11-22T02:56:01.065Z,3.37
2017-11-22T02:58:29.995Z,2.20
2017-11-22T03:00:55.802Z,3.05
2017-11-22T03:03:26.030Z,2.53
2017-11-22T03:05:51.847Z,2.50
2017-11-22T03:08:17.605Z,2.97
2017-11-22T03:10:43.384Z,2.63
2017-11-22T03:13:09.180Z,3.13
2017-11-22T03:15:36.571Z,2.60
2017-11-22T03:18:02.373Z,2.75
2017-11-22T03:20:31.726Z,2.50
2017-11-22T03:22:57.537Z,2.80
2017-11-22T03:25:25.764Z,3.70
2017-11-22T03:27:51.580Z,2.15
2017-11-22T03:30:22.468Z,3.50
2017-11-22T03:32:48.292Z,1.90
2017-11-22T03:35:15.240Z,2.47
2017-11-22T03:37:42.751Z,2.67
2017-11-22T03:40:11.741Z,1.95
2017-11-22T03:42:37.592Z,2.80
2017-11-22T03:45:03.420Z,3.10
2017-11-22T03:47:29.237Z,2.47
2017-11-22T03:50:01.175Z,3.03
2017-11-22T03:52:33.001Z,2.10
2017-11-22T03:54:58.812Z,3.00
2017-11-22T03:57:24.655Z,1.80
2017-11-22T04:02:46.878Z,2.70
2017-11-22T04:05:12.772Z,2.08
2017-11-22T04:07:38.540Z,2.87
2017-11-22T04:10:04.309Z,2.00
2017-11-22T04:12:30.056Z,2.20
2017-11-22T04:14:55.828Z,2.67
2017-11-22T04:17:21.604Z,1.93
2017-11-22T04:19:50.284Z,1.77
2017-11-22T04:22:16.036Z,2.40
2017-11-22T04:24:41.820Z,1.83
2017-11-22T04:27:07.587Z,1.30
2017-11-22T04:29:33.359Z,2.27
2017-11-22T04:31:59.100Z,1.90
2017-11-22T04:34:24.845Z,1.97
2017-11-22T04:36:50.621Z,3.07
2017-11-22T04:39:16.384Z,3.00
2017-11-22T04:41:42.192Z,2.30
2017-11-22T04:44:07.988Z,2.07
2017-11-22T04:46:33.775Z,2.30
2017-11-22T04:48:59.548Z,2.07
2017-11-22T04:51:25.324Z,2.00
2017-11-22T04:53:51.100Z,1.80
2017-11-22T04:56:16.850Z,2.53
2017-11-22T04:58:42.614Z,2.03
2017-11-22T05:01:08.404Z,2.10
2017-11-22T05:03:34.160Z,1.80
2017-11-22T05:05:59.944Z,1.90
2017-11-22T05:08:25.713Z,2.13
2017-11-22T05:10:51.475Z,1.80
2017-11-22T05:13:17.296Z,1.80
2017-11-22T05:15:43.109Z,2.33
2017-11-22T05:18:08.890Z,1.60
2017-11-22T05:20:38.328Z,2.00
2017-11-22T05:23:04.366Z,1.90
2017-11-22T05:25:31.780Z,1.95
2017-11-22T05:27:57.540Z,2.00
2017-11-22T05:30:25.796Z,1.50
2017-11-22T05:32:51.548Z,2.87
2017-11-22T05:35:17.300Z,2.20
2017-11-22T05:37:44.321Z,1.77
2017-11-22T05:40:10.092Z,2.10
2017-11-22T05:42:37.597Z,1.60
2017-11-22T05:45:03.397Z,2.25
2017-11-22T05:47:32.689Z,2.33
2017-11-22T05:49:58.481Z,2.70
2017-11-22T05:52:28.284Z,2.20
2017-11-22T05:54:54.065Z,7.93
2017-11-22T05:57:21.664Z,3.13
2017-11-22T05:59:47.448Z,2.90
2017-11-22T06:04:44.115Z,2.78
2017-11-22T06:07:11.576Z,2.10
2017-11-22T06:09:37.392Z,2.42
2017-11-22T06:12:03.148Z,2.70
2017-11-22T06:14:28.900Z,2.20
2017-11-22T06:16:54.687Z,1.93
2017-11-22T06:19:24.369Z,2.70
2017-11-22T06:21:50.182Z,2.05
2017-11-22T06:24:17.792Z,3.00
2017-11-22T06:26:43.544Z,1.85
2017-11-22T06:29:12.855Z,2.47
2017-11-22T06:31:38.633Z,2.20
2017-11-22T06:34:07.638Z,1.73
2017-11-22T06:36:33.414Z,3.40
2017-11-22T06:39:05.637Z,3.43
2017-11-22T06:41:31.388Z,2.65
2017-11-22T06:43:57.161Z,2.70
2017-11-22T06:46:23.085Z,2.27
2017-11-22T06:48:48.839Z,2.70
2017-11-22T06:51:14.626Z,3.10
2017-11-22T06:53:40.394Z,2.73
2017-11-22T06:56:08.132Z,2.80
2017-11-22T06:58:33.945Z,4.07
2017-11-22T07:01:03.699Z,1.93
2017-11-22T07:03:32.464Z,2.03
2017-11-22T07:05:58.232Z,2.10
2017-11-22T07:08:24.000Z,1.90
2017-11-22T07:10:52.813Z,2.37
2017-11-22T07:13:19.315Z,1.70
2017-11-22T07:15:56.327Z,2.25
2017-11-22T07:18:22.099Z,2.80
2017-11-22T07:20:47.860Z,2.60
2017-11-22T07:23:13.639Z,2.13
2017-11-22T07:25:39.403Z,2.60
2017-11-22T07:28:05.140Z,2.47
2017-11-22T07:30:30.888Z,2.40
2017-11-22T07:32:56.640Z,2.23
2017-11-22T07:35:28.549Z,2.33
2017-11-22T07:38:00.390Z,3.45
2017-11-22T07:40:29.075Z,3.08
2017-11-22T07:42:54.856Z,2.65
2017-11-22T07:45:20.613Z,2.70
2017-11-22T07:47:52.482Z,2.53
2017-11-22T07:50:18.307Z,2.72
2017-11-22T07:52:44.068Z,2.63
2017-11-22T07:55:09.844Z,2.43
2017-11-22T07:57:37.576Z,2.50
2017-11-22T08:00:03.390Z,4.00
2017-11-22T08:02:29.220Z,2.80
2017-11-22T08:04:55.004Z,2.57
2017-11-22T08:07:20.744Z,3.23
2017-11-22T08:09:46.484Z,2.80
2017-11-22T08:12:12.244Z,2.23
2017-11-22T08:14:37.996Z,3.30
2017-11-22T08:17:03.756Z,2.90
2017-11-22T08:19:29.533Z,2.80
2017-11-22T08:21:55.289Z,2.97
2017-11-22T08:24:22.800Z,3.10
2017-11-22T08:26:48.547Z,3.27
2017-11-22T08:31:45.260Z,3.17
2017-11-22T08:34:12.808Z,3.30
2017-11-22T08:36:38.571Z,2.40
2017-11-22T08:39:04.320Z,2.97
2017-11-22T08:41:36.145Z,3.73
2017-11-22T08:44:01.990Z,2.50
2017-11-22T08:46:27.752Z,3.47
2017-11-22T08:48:53.528Z,3.87
2017-11-22T08:51:19.292Z,2.90
2017-11-22T08:53:45.059Z,3.17
2017-11-22T08:56:19.663Z,5.87
2017-11-22T08:58:45.423Z,5.90
2017-11-22T09:01:11.176Z,7.30
2017-11-22T09:03:43.084Z,5.47
2017-11-22T09:06:15.072Z,7.67
2017-11-22T09:08:40.818Z,5.10
2017-11-22T09:11:06.609Z,5.87
2017-11-22T09:13:32.388Z,5.80
2017-11-22T09:15:58.163Z,5.73
2017-11-22T09:18:29.880Z,4.67
2017-11-22T09:20:55.658Z,4.90
2017-11-22T09:23:21.420Z,3.53
2017-11-22T09:25:47.181Z,3.40
2017-11-22T09:28:12.948Z,6.03
2017-11-22T09:30:44.968Z,3.37
2017-11-22T09:33:10.752Z,3.50
2017-11-22T09:35:36.503Z,3.97
2017-11-22T09:38:02.244Z,3.83
2017-11-22T09:40:28.049Z,4.03
2017-11-22T09:42:53.801Z,2.90
2017-11-22T09:45:19.566Z,3.40
2017-11-22T09:47:45.344Z,2.90
2017-11-22T09:50:11.085Z,2.90
2017-11-22T09:52:37.271Z,3.00
2017-11-22T09:55:03.060Z,2.80
2017-11-22T09:57:28.839Z,3.00
2017-11-22T09:59:54.588Z,2.47
2017-11-22T10:02:20.393Z,3.90
2017-11-22T10:07:16.976Z,3.03
2017-11-22T10:09:44.259Z,3.00
2017-11-22T10:12:10.023Z,2.80
2017-11-22T10:14:38.792Z,2.70
2017-11-22T10:17:10.671Z,3.00
2017-11-22T10:19:42.664Z,2.33
2017-11-22T10:22:08.472Z,4.20
2017-11-22T10:24:34.378Z,3.00
2017-11-22T10:27:06.275Z,3.13
2017-11-22T10:29:39.058Z,3.33
2017-11-22T10:32:04.871Z,2.90
2017-11-22T10:34:30.644Z,3.13
2017-11-22T10:36:56.416Z,2.93
2017-11-22T10:39:22.224Z,3.47
2017-11-22T10:41:48.000Z,3.07
2017-11-22T10:44:13.772Z,2.80
2017-11-22T10:46:39.552Z,2.57
2017-11-22T10:49:05.321Z,2.40
2017-11-22T10:51:31.103Z,2.53
2017-11-22T10:53:56.876Z,3.43
2017-11-22T10:56:22.635Z,2.50
2017-11-22T10:58:48.419Z,2.47
2017-11-22T11:01:14.184Z,3.33
2017-11-22T11:03:39.963Z,3.37
2017-11-22T11:06:05.736Z,2.00
2017-11-22T11:08:31.525Z,2.17
2017-11-22T11:10:57.292Z,3.17
2017-11-22T11:13:26.753Z,3.30
2017-11-22T11:15:52.531Z,2.80
2017-11-22T11:18:20.112Z,2.67
2017-11-22T11:20:45.884Z,3.77
2017-11-22T11:23:14.229Z,2.23
2017-11-22T11:25:40.048Z,2.87
2017-11-22T11:28:05.784Z,2.83
2017-11-22T11:30:32.185Z,2.70
2017-11-22T11:32:57.998Z,2.53
2017-11-22T11:35:40.021Z,2.73
2017-11-22T11:38:05.812Z,3.10
2017-11-22T11:40:31.597Z,2.70
2017-11-22T11:42:57.363Z,3.10
2017-11-22T11:45:23.148Z,3.70
2017-11-22T11:47:48.948Z,2.77
2017-11-22T11:50:14.701Z,2.57
2017-11-22T11:52:40.504Z,2.87
2017-11-22T11:55:06.265Z,3.47
2017-11-22T11:57:32.319Z,3.20
2017-11-22T12:00:00.021Z,3.40
2017-11-22T12:02:26.721Z,2.40
2017-11-22T12:04:57.226Z,2.90
2017-11-22T12:07:24.307Z,3.33
2017-11-22T12:09:51.177Z,2.90
2017-11-22T12:12:17.689Z,3.10
2017-11-22T12:14:44.883Z,3.40
2017-11-22T12:17:11.265Z,2.50
2017-11-22T12:19:38.049Z,3.43
2017-11-22T12:22:10.622Z,3.03
2017-11-22T12:24:36.465Z,2.70
2017-11-22T12:27:05.277Z,3.13
2017-11-22T12:29:31.043Z,3.10
2017-11-22T12:31:56.794Z,2.43
2017-11-22T12:34:22.547Z,2.60
2017-11-22T12:36:48.357Z,2.60
2017-11-22T12:39:14.120Z,3.77
2017-11-22T12:41:40.567Z,2.97
2017-11-22T12:44:10.380Z,2.97
2017-11-22T12:46:36.131Z,2.80
2017-11-22T12:49:01.884Z,3.30
2017-11-22T12:51:29.623Z,2.43
2017-11-22T12:53:55.405Z,3.17
2017-11-22T12:56:21.171Z,4.33
2017-11-22T12:58:46.981Z,4.43
2017-11-22T13:01:12.784Z,3.73
2017-11-22T13:03:41.581Z,3.37
2017-11-22T13:06:07.406Z,3.17
2017-11-22T13:08:35.954Z,3.30
2017-11-22T13:11:01.744Z,2.60
2017-11-22T13:15:58.328Z,2.17
2017-11-22T13:18:25.809Z,3.50
2017-11-22T13:20:51.581Z,1.97
2017-11-22T13:23:20.636Z,2.73
2017-11-22T13:25:46.457Z,2.53
2017-11-22T13:28:15.712Z,2.30
2017-11-22T13:30:41.500Z,2.83
2017-11-22T13:33:07.291Z,1.73
2017-11-22T13:35:33.056Z,3.00
2017-11-22T13:37:58.875Z,2.50
2017-11-22T13:40:26.561Z,2.67
2017-11-22T13:42:52.328Z,3.13
2017-11-22T13:45:21.871Z,3.53
2017-11-22T13:47:47.701Z,3.07
2017-11-22T13:50:16.784Z,2.87
2017-11-22T13:52:42.590Z,3.10
2017-11-22T13:55:12.092Z,2.10
2017-11-22T13:57:37.859Z,2.40
2017-11-22T14:00:07.267Z,2.10
2017-11-22T14:02:33.044Z,2.30
2017-11-22T14:05:02.020Z,2.40
2017-11-22T14:07:27.825Z,2.70
2017-11-22T14:09:53.594Z,2.57
2017-11-22T14:12:19.386Z,2.50
2017-11-22T14:14:45.139Z,16.90
2017-11-22T14:17:12.028Z,16.43
2017-11-22T14:19:37.813Z,3.33
2017-11-22T14:22:07.499Z,2.20
2017-11-22T14:24:33.280Z,2.83
2017-11-22T14:27:02.840Z,1.90
2017-11-22T14:29:28.632Z,2.70
2017-11-22T14:31:56.246Z,2.27
2017-11-22T14:34:22.004Z,3.17
2017-11-22T14:36:51.782Z,3.10
2017-11-22T14:39:17.607Z,3.10
2017-11-22T14:41:46.821Z,3.13
2017-11-22T14:44:12.581Z,3.67
2017-11-22T14:46:38.340Z,3.30
2017-11-22T14:49:04.147Z,3.10
2017-11-22T14:51:29.908Z,2.70
2017-11-22T14:53:57.636Z,3.23
2017-11-22T14:56:23.623Z,2.03
2017-11-22T14:58:52.804Z,2.47
2017-11-22T15:01:18.591Z,2.40
2017-11-22T15:03:48.245Z,2.37
2017-11-22T15:06:14.040Z,1.93
2017-11-22T15:08:41.865Z,2.80
2017-11-22T15:11:07.655Z,3.27
2017-11-22T15:13:36.576Z,3.40
2017-11-22T15:16:02.384Z,3.17
2017-11-22T15:18:31.514Z,3.47
2017-11-22T15:20:57.369Z,3.53
2017-11-22T15:23:23.143Z,3.57
2017-11-22T15:25:48.921Z,4.17
2017-11-22T15:28:14.689Z,4.30
2017-11-22T15:30:42.498Z,3.87
2017-11-22T15:33:08.271Z,4.13
2017-11-22T15:35:37.493Z,4.40
2017-11-22T15:38:03.262Z,4.20
2017-11-22T15:40:32.212Z,5.10
2017-11-22T15:42:57.988Z,4.07
2017-11-22T15:45:26.645Z,5.70
2017-11-22T15:47:52.456Z,3.97
2017-11-22T15:50:21.248Z,3.83
2017-11-22T15:52:47.116Z,4.27
2017-11-22T15:55:17.686Z,3.60
2017-11-22T16:00:24.344Z,4.07
2017-11-22T16:02:50.168Z,4.10
2017-11-22T16:05:16.015Z,4.20
2017-11-22T16:07:41.800Z,3.63
2017-11-22T16:10:07.560Z,4.50
2017-11-22T16:12:33.420Z,4.20
2017-11-22T16:14:59.193Z,5.50
2017-11-22T16:17:24.995Z,5.67
2017-11-22T16:37:03.511Z,2.55
2017-11-22T16:39:29.336Z,4.20
2017-11-22T16:42:18.715Z,2.60
2017-11-22T17:01:29.892Z,3.50
2017-11-22T17:21:07.870Z,3.78
2017-11-22T17:40:30.185Z,6.97
2017-11-22T17:43:28.222Z,4.93
2017-11-22T18:02:50.540Z,2.80
2017-11-22T18:08:37.323Z,2.53
2017-11-22T18:11:26.913Z,6.50
2017-11-22T18:14:23.820Z,3.22
2017-11-22T18:17:23.880Z,4.85
2017-11-22T18:30:11.055Z,3.30
2017-11-22T18:33:00.675Z,4.32
2017-11-22T18:35:58.523Z,4.55
2017-11-22T18:38:55.520Z,3.10
2017-11-22T18:51:42.604Z,2.85
2017-11-22T18:54:32.394Z,4.85
2017-11-22T18:57:29.187Z,5.62
2017-11-22T19:16:39.579Z,3.62
2017-11-22T19:35:49.972Z,6.45
2017-11-22T19:55:25.256Z,3.97
2017-11-22T19:57:51.016Z,2.80
2017-11-22T20:00:40.638Z,4.03
2017-11-22T20:19:52.605Z,5.20
2017-11-22T20:22:42.221Z,4.03
2017-11-22T20:41:54.296Z,3.25
2017-11-22T20:44:43.905Z,2.30
2017-11-22T20:47:41.640Z,2.22
2017-11-22T21:03:32.316Z,2.83
2017-11-22T21:06:25.060Z,2.80
2017-11-22T21:09:22.819Z,2.80
2017-11-22T21:12:20.411Z,3.30
2017-11-22T21:15:17.552Z,2.70
2017-11-22T21:25:07.404Z,4.40
2017-11-22T21:44:46.836Z,2.58
2017-11-22T22:04:00.479Z,3.35
2017-11-22T22:23:11.933Z,3.50
2017-11-22T22:26:09.692Z,5.00
2017-11-22T22:29:07.616Z,4.22
2017-11-22T22:31:46.760Z,2.60
2017-11-22T22:51:22.714Z,8.30
2017-11-22T23:10:36.323Z,2.62
2017-11-22T23:13:13.952Z,2.75
2017-11-22T23:32:50.449Z,2.10
2017-11-22T23:52:01.461Z,2.08
2017-11-22T23:54:59.384Z,2.22
2017-11-22T23:57:25.126Z,2.70
